sensor_id;sensor_type;location;lat;lon;timestamp;P1;durP1;ratioP1;P2;durP2;ratioP2
56507;SDS011;42403;53.160;6.368;2022-08-04T00:00:04;5.85;;;5.55;;
56507;SDS011;42403;53.160;6.368;2022-08-04T00:05:00;14.35;;;13.13;;
56507;SDS011;42403;53.160;6.368;2022-08-04T00:07:36;45.05;;;24.00;;
56507;SDS011;42403;53.160;6.368;2022-08-04T00:10:04;59.70;;;26.90;;
56507;SDS011;42403;53.160;6.368;2022-08-04T00:12:32;49.60;;;25.20;;
56507;SDS011;42403;53.160;6.368;2022-08-04T00:15:00;49.00;;;25.10;;
56507;SDS011;42403;53.160;6.368;2022-08-04T00:17:29;49.33;;;25.30;;
56507;SDS011;42403;53.160;6.368;2022-08-04T00:19:58;49.88;;;25.50;;
56507;SDS011;42403;53.160;6.368;2022-08-04T00:22:26;49.75;;;25.30;;
56507;SDS011;42403;53.160;6.368;2022-08-04T00:24:52;49.60;;;25.50;;
56507;SDS011;42403;53.160;6.368;2022-08-04T00:27:19;49.03;;;25.33;;
56507;SDS011;42403;53.160;6.368;2022-08-04T00:29:45;48.92;;;25.20;;
56507;SDS011;42403;53.160;6.368;2022-08-04T00:32:12;47.75;;;24.98;;
56507;SDS011;42403;53.160;6.368;2022-08-04T00:34:38;47.22;;;25.00;;
56507;SDS011;42403;53.160;6.368;2022-08-04T00:37:04;44.45;;;24.25;;
56507;SDS011;42403;53.160;6.368;2022-08-04T00:39:31;37.58;;;22.63;;
56507;SDS011;42403;53.160;6.368;2022-08-04T00:44:32;43.38;;;23.80;;
56507;SDS011;42403;53.160;6.368;2022-08-04T00:47:18;53.03;;;25.73;;
56507;SDS011;42403;53.160;6.368;2022-08-04T00:49:54;61.17;;;27.40;;
56507;SDS011;42403;53.160;6.368;2022-08-04T00:52:32;69.38;;;28.73;;
56507;SDS011;42403;53.160;6.368;2022-08-04T01:00:22;89.43;;;31.50;;
56507;SDS011;42403;53.160;6.368;2022-08-04T01:05:33;94.88;;;32.33;;
56507;SDS011;42403;53.160;6.368;2022-08-04T01:11:10;108.77;;;34.20;;
56507;SDS011;42403;53.160;6.368;2022-08-04T01:16:51;116.95;;;35.50;;
56507;SDS011;42403;53.160;6.368;2022-08-04T01:24:28;123.60;;;36.05;;
56507;SDS011;42403;53.160;6.368;2022-08-04T01:27:00;120.82;;;35.80;;
56507;SDS011;42403;53.160;6.368;2022-08-04T01:29:27;127.97;;;36.30;;
56507;SDS011;42403;53.160;6.368;2022-08-04T01:32:08;130.38;;;37.30;;
56507;SDS011;42403;53.160;6.368;2022-08-04T01:39:37;133.23;;;37.05;;
56507;SDS011;42403;53.160;6.368;2022-08-04T01:42:10;135.07;;;37.40;;
56507;SDS011;42403;53.160;6.368;2022-08-04T01:44:37;131.57;;;36.97;;
56507;SDS011;42403;53.160;6.368;2022-08-04T01:47:04;142.23;;;38.55;;
56507;SDS011;42403;53.160;6.368;2022-08-04T01:49:31;147.10;;;38.70;;
56507;SDS011;42403;53.160;6.368;2022-08-04T01:51:58;150.52;;;39.40;;
56507;SDS011;42403;53.160;6.368;2022-08-04T01:54:24;153.30;;;39.38;;
56507;SDS011;42403;53.160;6.368;2022-08-04T01:56:52;154.17;;;39.63;;
56507;SDS011;42403;53.160;6.368;2022-08-04T01:59:20;154.40;;;38.90;;
56507;SDS011;42403;53.160;6.368;2022-08-04T02:01:47;156.10;;;39.50;;
56507;SDS011;42403;53.160;6.368;2022-08-04T02:04:17;158.35;;;39.90;;
56507;SDS011;42403;53.160;6.368;2022-08-04T02:09:19;162.13;;;40.72;;
56507;SDS011;42403;53.160;6.368;2022-08-04T02:14:29;162.43;;;40.47;;
56507;SDS011;42403;53.160;6.368;2022-08-04T02:17:12;159.57;;;40.60;;
56507;SDS011;42403;53.160;6.368;2022-08-04T02:22:23;155.35;;;39.60;;
56507;SDS011;42403;53.160;6.368;2022-08-04T02:24:54;155.35;;;39.75;;
56507;SDS011;42403;53.160;6.368;2022-08-04T02:27:24;155.65;;;39.38;;
56507;SDS011;42403;53.160;6.368;2022-08-04T02:29:58;153.57;;;39.90;;
56507;SDS011;42403;53.160;6.368;2022-08-04T02:32:25;148.63;;;38.53;;
56507;SDS011;42403;53.160;6.368;2022-08-04T02:35:26;145.23;;;38.60;;
56507;SDS011;42403;53.160;6.368;2022-08-04T02:37:48;4.38;;;1.70;;
56507;SDS011;42403;53.160;6.368;2022-08-04T02:40:20;2.28;;;1.48;;
56507;SDS011;42403;53.160;6.368;2022-08-04T02:42:46;3.17;;;2.00;;
56507;SDS011;42403;53.160;6.368;2022-08-04T02:45:12;3.53;;;3.10;;
56507;SDS011;42403;53.160;6.368;2022-08-04T02:47:39;3.30;;;2.00;;
56507;SDS011;42403;53.160;6.368;2022-08-04T02:50:07;2.85;;;1.80;;
56507;SDS011;42403;53.160;6.368;2022-08-04T02:52:35;4.03;;;3.03;;
56507;SDS011;42403;53.160;6.368;2022-08-04T02:55:01;5.07;;;4.57;;
56507;SDS011;42403;53.160;6.368;2022-08-04T02:57:28;4.20;;;3.28;;
56507;SDS011;42403;53.160;6.368;2022-08-04T03:05:24;3.00;;;1.83;;
56507;SDS011;42403;53.160;6.368;2022-08-04T03:10:17;2.75;;;2.40;;
56507;SDS011;42403;53.160;6.368;2022-08-04T03:32:05;4.20;;;3.90;;
56507;SDS011;42403;53.160;6.368;2022-08-04T03:33:58;3.75;;;3.30;;
56507;SDS011;42403;53.160;6.368;2022-08-04T03:36:31;2.80;;;2.15;;
56507;SDS011;42403;53.160;6.368;2022-08-04T03:49:35;3.30;;;3.10;;
56507;SDS011;42403;53.160;6.368;2022-08-04T03:57:40;3.80;;;3.33;;
56507;SDS011;42403;53.160;6.368;2022-08-04T04:00:17;3.25;;;2.30;;
56507;SDS011;42403;53.160;6.368;2022-08-04T04:02:50;3.17;;;2.35;;
56507;SDS011;42403;53.160;6.368;2022-08-04T04:16:04;3.45;;;2.75;;
56507;SDS011;42403;53.160;6.368;2022-08-04T04:18:36;3.45;;;2.88;;
56507;SDS011;42403;53.160;6.368;2022-08-04T04:21:14;5.32;;;4.82;;
56507;SDS011;42403;53.160;6.368;2022-08-04T04:39:28;5.10;;;4.63;;
56507;SDS011;42403;53.160;6.368;2022-08-04T04:47:28;2.95;;;2.78;;
56507;SDS011;42403;53.160;6.368;2022-08-04T04:50:09;2.53;;;2.33;;
56507;SDS011;42403;53.160;6.368;2022-08-04T04:52:41;2.13;;;1.92;;
56507;SDS011;42403;53.160;6.368;2022-08-04T04:55:18;3.00;;;2.80;;
56507;SDS011;42403;53.160;6.368;2022-08-04T04:57:46;2.60;;;1.73;;
56507;SDS011;42403;53.160;6.368;2022-08-04T05:00:13;4.05;;;3.60;;
56507;SDS011;42403;53.160;6.368;2022-08-04T05:16:40;4.10;;;3.40;;
56507;SDS011;42403;53.160;6.368;2022-08-04T05:18:48;3.67;;;2.42;;
56507;SDS011;42403;53.160;6.368;2022-08-04T05:21:20;150.32;;;40.13;;
56507;SDS011;42403;53.160;6.368;2022-08-04T05:23:51;142.30;;;38.20;;
56507;SDS011;42403;53.160;6.368;2022-08-04T05:26:22;140.73;;;39.22;;
56507;SDS011;42403;53.160;6.368;2022-08-04T05:28:53;134.52;;;38.42;;
56507;SDS011;42403;53.160;6.368;2022-08-04T05:31:25;127.13;;;37.50;;
56507;SDS011;42403;53.160;6.368;2022-08-04T05:33:56;103.60;;;35.70;;
